JST557 NZWN-NZQN
Flight info
| Callsign | JST557 |
|---|---|
| Flight time | 1h 11m |
| Altitude | 38000 |
| Route | SABDA Y622 MESIX H159 CH Y266 ELRUV |
| Aircraft | B738/M-SDE2E3FGHIRWXY/LB1 |
Departure
| Time | 2026-05-04 00:28 |
|---|---|
| Airport | Wellington International Airport (NZWN) |
Arrival
| Time | 2026-05-04 01:39 |
|---|---|
| Airport | Queenstown Airport (NZQN) |
| Time | Latitude | Longitude | Altitude | Speed | Heading |
|---|---|---|---|---|---|
| 2026-05-03 23:48 | -41.32880 | 174.81044 | 26 ft | 0 kts | 31° |
| 2026-05-04 00:17 | -41.32888 | 174.81037 | 31 ft | 3 kts | 31° |
| 2026-05-04 00:17 | -41.32903 | 174.81025 | 30 ft | 3 kts | 31° |
| 2026-05-04 00:17 | -41.32921 | 174.81020 | 29 ft | 3 kts | 328° |
| 2026-05-04 00:18 | -41.32926 | 174.81024 | 27 ft | 0 kts | 308° |
| 2026-05-04 00:22 | -41.32924 | 174.81021 | 27 ft | 1 kts | 306° |
| 2026-05-04 00:22 | -41.32919 | 174.81003 | 31 ft | 3 kts | 286° |
| 2026-05-04 00:23 | -41.32914 | 174.80965 | 30 ft | 5 kts | 278° |
| 2026-05-04 00:23 | -41.32916 | 174.80905 | 26 ft | 7 kts | 248° |
| 2026-05-04 00:23 | -41.32964 | 174.80876 | 29 ft | 9 kts | 188° |
| 2026-05-04 00:23 | -41.33034 | 174.80871 | 28 ft | 11 kts | 181° |
| 2026-05-04 00:24 | -41.33120 | 174.80868 | 27 ft | 13 kts | 183° |
| 2026-05-04 00:24 | -41.33193 | 174.80864 | 29 ft | 7 kts | 182° |
| 2026-05-04 00:24 | -41.33211 | 174.80861 | 30 ft | 1 kts | 195° |
| 2026-05-04 00:24 | -41.33227 | 174.80843 | 27 ft | 5 kts | 230° |
| 2026-05-04 00:25 | -41.33242 | 174.80800 | 29 ft | 5 kts | 233° |
| 2026-05-04 00:25 | -41.33283 | 174.80781 | 29 ft | 8 kts | 187° |
| 2026-05-04 00:25 | -41.33352 | 174.80775 | 28 ft | 12 kts | 182° |
| 2026-05-04 00:25 | -41.33446 | 174.80771 | 28 ft | 15 kts | 181° |
| 2026-05-04 00:26 | -41.33532 | 174.80761 | 30 ft | 8 kts | 198° |
| 2026-05-04 00:26 | -41.33560 | 174.80720 | 27 ft | 7 kts | 243° |
| 2026-05-04 00:26 | -41.33575 | 174.80655 | 26 ft | 6 kts | 273° |
| 2026-05-04 00:26 | -41.33547 | 174.80634 | 30 ft | 5 kts | 357° |
| 2026-05-04 00:27 | -41.33544 | 174.80635 | 28 ft | 3 kts | 360° |
| 2026-05-04 00:27 | -41.33313 | 174.80648 | 27 ft | 66 kts | 4° |
| 2026-05-04 00:27 | -41.32649 | 174.80697 | 27 ft | 123 kts | 5° |
| 2026-05-04 00:27 | -41.31721 | 174.80801 | 414 ft | 143 kts | 5° |
| 2026-05-04 00:28 | -41.30689 | 174.80869 | 1003 ft | 156 kts | 4° |
| 2026-05-04 00:28 | -41.29591 | 174.80919 | 1764 ft | 160 kts | 2° |
| 2026-05-04 00:28 | -41.28447 | 174.80968 | 2514 ft | 170 kts | 2° |
| 2026-05-04 00:28 | -41.27212 | 174.81047 | 3200 ft | 186 kts | 2° |
| 2026-05-04 00:29 | -41.25859 | 174.81124 | 3838 ft | 204 kts | 356° |
| 2026-05-04 00:29 | -41.24478 | 174.80531 | 4525 ft | 215 kts | 334° |
| 2026-05-04 00:29 | -41.23085 | 174.79678 | 5297 ft | 224 kts | 338° |
| 2026-05-04 00:29 | -41.21582 | 174.78983 | 6221 ft | 231 kts | 342° |
| 2026-05-04 00:30 | -41.20012 | 174.78398 | 7254 ft | 236 kts | 343° |
| 2026-05-04 00:30 | -41.18403 | 174.77832 | 8223 ft | 243 kts | 343° |
| 2026-05-04 00:30 | -41.16753 | 174.77262 | 9224 ft | 247 kts | 341° |
| 2026-05-04 00:30 | -41.15216 | 174.76214 | 9868 ft | 251 kts | 314° |
| 2026-05-04 00:31 | -41.14355 | 174.74347 | 9997 ft | 234 kts | 279° |
| 2026-05-04 00:31 | -41.14446 | 174.72198 | 10011 ft | 235 kts | 247° |
| 2026-05-04 00:31 | -41.15381 | 174.70522 | 10184 ft | 233 kts | 214° |
| 2026-05-04 00:31 | -41.16764 | 174.69462 | 11139 ft | 231 kts | 209° |
| 2026-05-04 00:32 | -41.18299 | 174.68747 | 11998 ft | 237 kts | 190° |
| 2026-05-04 00:32 | -41.19419 | 174.68684 | 12458 ft | 251 kts | 179° |
| 2026-05-04 00:32 | -41.21214 | 174.68922 | 13066 ft | 268 kts | 175° |
| 2026-05-04 00:32 | -41.23128 | 174.69274 | 13668 ft | 286 kts | 175° |
| 2026-05-04 00:33 | -41.25156 | 174.69659 | 14262 ft | 303 kts | 174° |
| 2026-05-04 00:33 | -41.29585 | 174.70420 | 15255 ft | 338 kts | 175° |
| 2026-05-04 00:33 | -41.31968 | 174.70807 | 15893 ft | 349 kts | 174° |
| 2026-05-04 00:34 | -41.34405 | 174.71208 | 16689 ft | 355 kts | 174° |
| 2026-05-04 00:34 | -41.36885 | 174.71265 | 17520 ft | 359 kts | 187° |
| 2026-05-04 00:34 | -41.39381 | 174.70794 | 18330 ft | 365 kts | 189° |
| 2026-05-04 00:34 | -41.41874 | 174.70238 | 19096 ft | 370 kts | 191° |
| 2026-05-04 00:35 | -41.44434 | 174.69614 | 19830 ft | 374 kts | 191° |
| 2026-05-04 00:35 | -41.47012 | 174.68982 | 20586 ft | 378 kts | 191° |
| 2026-05-04 00:35 | -41.49571 | 174.68118 | 21332 ft | 381 kts | 201° |
| 2026-05-04 00:35 | -41.51995 | 174.66655 | 22063 ft | 385 kts | 207° |
| 2026-05-04 00:36 | -41.54396 | 174.65036 | 22789 ft | 389 kts | 207° |
| 2026-05-04 00:36 | -41.56804 | 174.63342 | 23515 ft | 392 kts | 208° |
| 2026-05-04 00:36 | -41.59223 | 174.61617 | 24202 ft | 396 kts | 208° |
| 2026-05-04 00:36 | -41.61669 | 174.59890 | 24779 ft | 399 kts | 208° |
| 2026-05-04 00:37 | -41.64141 | 174.58168 | 25350 ft | 402 kts | 207° |
| 2026-05-04 00:37 | -41.66635 | 174.56441 | 25922 ft | 405 kts | 207° |
| 2026-05-04 00:37 | -41.69121 | 174.54714 | 26482 ft | 408 kts | 207° |
| 2026-05-04 00:37 | -41.71649 | 174.52946 | 27012 ft | 411 kts | 207° |
| 2026-05-04 00:38 | -41.74188 | 174.51163 | 27531 ft | 414 kts | 207° |
| 2026-05-04 00:38 | -41.76748 | 174.49364 | 28029 ft | 417 kts | 207° |
| 2026-05-04 00:38 | -41.79309 | 174.47518 | 28508 ft | 420 kts | 211° |
| 2026-05-04 00:38 | -41.81758 | 174.45359 | 28983 ft | 423 kts | 213° |
| 2026-05-04 00:39 | -41.84215 | 174.43148 | 29439 ft | 426 kts | 214° |
| 2026-05-04 00:39 | -41.86674 | 174.40907 | 29887 ft | 428 kts | 214° |
| 2026-05-04 00:39 | -41.89147 | 174.38639 | 30326 ft | 431 kts | 214° |
| 2026-05-04 00:39 | -41.91594 | 174.36401 | 30829 ft | 430 kts | 214° |
| 2026-05-04 00:40 | -41.94066 | 174.34146 | 31329 ft | 428 kts | 214° |
| 2026-05-04 00:40 | -41.96528 | 174.31906 | 31822 ft | 427 kts | 214° |
| 2026-05-04 00:40 | -41.98984 | 174.29667 | 32315 ft | 426 kts | 214° |
| 2026-05-04 00:40 | -42.01430 | 174.27431 | 32786 ft | 425 kts | 214° |
| 2026-05-04 00:41 | -42.03873 | 174.25193 | 33242 ft | 424 kts | 214° |
| 2026-05-04 00:41 | -42.06312 | 174.22956 | 33724 ft | 423 kts | 214° |
| 2026-05-04 00:41 | -42.08740 | 174.20730 | 34206 ft | 422 kts | 214° |
| 2026-05-04 00:41 | -42.11162 | 174.18508 | 34657 ft | 421 kts | 214° |
| 2026-05-04 00:42 | -42.13579 | 174.16288 | 35063 ft | 419 kts | 215° |
| 2026-05-04 00:42 | -42.15985 | 174.14076 | 35469 ft | 418 kts | 215° |
| 2026-05-04 00:42 | -42.18387 | 174.11865 | 35866 ft | 417 kts | 215° |
| 2026-05-04 00:42 | -42.20779 | 174.09661 | 36261 ft | 416 kts | 215° |
| 2026-05-04 00:43 | -42.23167 | 174.07458 | 36649 ft | 415 kts | 215° |
| 2026-05-04 00:43 | -42.25545 | 174.05263 | 37033 ft | 414 kts | 215° |
| 2026-05-04 00:43 | -42.27917 | 174.03072 | 37441 ft | 412 kts | 215° |
| 2026-05-04 00:43 | -42.30278 | 174.00888 | 37832 ft | 411 kts | 215° |
| 2026-05-04 00:44 | -42.32630 | 173.98711 | 38207 ft | 410 kts | 215° |
| 2026-05-04 00:44 | -42.34980 | 173.96534 | 38512 ft | 410 kts | 215° |
| 2026-05-04 00:44 | -42.37353 | 173.94332 | 38508 ft | 415 kts | 215° |
| 2026-05-04 00:45 | -42.42055 | 173.89965 | 38502 ft | 407 kts | 215° |
| 2026-05-04 00:45 | -42.46720 | 173.85625 | 38519 ft | 407 kts | 215° |
| 2026-05-04 00:46 | -42.51389 | 173.81271 | 38515 ft | 407 kts | 215° |
| 2026-05-04 00:46 | -42.56049 | 173.76919 | 38523 ft | 406 kts | 215° |
| 2026-05-04 00:47 | -42.60714 | 173.72554 | 38518 ft | 406 kts | 215° |
| 2026-05-04 00:47 | -42.65371 | 173.68188 | 38523 ft | 407 kts | 215° |
| 2026-05-04 00:48 | -42.70021 | 173.63821 | 38518 ft | 407 kts | 215° |
| 2026-05-04 00:48 | -42.74644 | 173.59471 | 38517 ft | 407 kts | 215° |
| 2026-05-04 00:49 | -42.79299 | 173.55083 | 38516 ft | 406 kts | 215° |
| 2026-05-04 00:49 | -42.83954 | 173.50686 | 38523 ft | 406 kts | 215° |
| 2026-05-04 00:50 | -42.88565 | 173.46324 | 38520 ft | 404 kts | 216° |
| 2026-05-04 00:50 | -42.93191 | 173.41938 | 38510 ft | 405 kts | 216° |
| 2026-05-04 00:51 | -42.97821 | 173.37541 | 38511 ft | 405 kts | 216° |
| 2026-05-04 00:51 | -43.02445 | 173.33141 | 38512 ft | 405 kts | 216° |
| 2026-05-04 00:52 | -43.07047 | 173.28753 | 38511 ft | 405 kts | 216° |
| 2026-05-04 00:52 | -43.11421 | 173.23957 | 38531 ft | 403 kts | 229° |
| 2026-05-04 00:53 | -43.14836 | 173.17920 | 38522 ft | 398 kts | 234° |
| 2026-05-04 00:53 | -43.18099 | 173.11815 | 38512 ft | 397 kts | 234° |
| 2026-05-04 00:54 | -43.21382 | 173.05727 | 38512 ft | 397 kts | 234° |
| 2026-05-04 00:54 | -43.24669 | 172.99653 | 38513 ft | 396 kts | 234° |
| 2026-05-04 00:55 | -43.27945 | 172.93557 | 38511 ft | 396 kts | 234° |
| 2026-05-04 00:55 | -43.31193 | 172.87503 | 38515 ft | 396 kts | 234° |
| 2026-05-04 00:56 | -43.34466 | 172.81397 | 38514 ft | 396 kts | 234° |
| 2026-05-04 00:56 | -43.37736 | 172.75278 | 38517 ft | 396 kts | 234° |
| 2026-05-04 00:57 | -43.40998 | 172.69164 | 38525 ft | 396 kts | 235° |
| 2026-05-04 00:57 | -43.44220 | 172.63113 | 38523 ft | 394 kts | 235° |
| 2026-05-04 00:58 | -43.47462 | 172.57007 | 38523 ft | 395 kts | 235° |
| 2026-05-04 00:58 | -43.50647 | 172.50844 | 38532 ft | 394 kts | 240° |
| 2026-05-04 00:59 | -43.53433 | 172.44326 | 38516 ft | 395 kts | 240° |
| 2026-05-04 00:59 | -43.56180 | 172.37780 | 38507 ft | 394 kts | 241° |
| 2026-05-04 01:00 | -43.58934 | 172.31227 | 38511 ft | 394 kts | 241° |
| 2026-05-04 01:00 | -43.61673 | 172.24712 | 38508 ft | 392 kts | 241° |
| 2026-05-04 01:01 | -43.64390 | 172.18216 | 38508 ft | 393 kts | 241° |
| 2026-05-04 01:01 | -43.67129 | 172.11665 | 38505 ft | 393 kts | 241° |
| 2026-05-04 01:02 | -43.69860 | 172.05117 | 38506 ft | 393 kts | 241° |
| 2026-05-04 01:02 | -43.72586 | 171.98561 | 38508 ft | 393 kts | 241° |
| 2026-05-04 01:03 | -43.75301 | 171.92020 | 38511 ft | 393 kts | 242° |
| 2026-05-04 01:03 | -43.78015 | 171.85465 | 38505 ft | 392 kts | 242° |
| 2026-05-04 01:04 | -43.80722 | 171.78909 | 38501 ft | 393 kts | 242° |
| 2026-05-04 01:04 | -43.83425 | 171.72349 | 38498 ft | 392 kts | 242° |
| 2026-05-04 01:05 | -43.86180 | 171.65823 | 38496 ft | 392 kts | 240° |
| 2026-05-04 01:05 | -43.88989 | 171.59329 | 38493 ft | 392 kts | 240° |
| 2026-05-04 01:06 | -43.91757 | 171.52811 | 38504 ft | 392 kts | 241° |
| 2026-05-04 01:06 | -43.94495 | 171.46346 | 38497 ft | 390 kts | 241° |
| 2026-05-04 01:07 | -43.97253 | 171.39847 | 38497 ft | 391 kts | 241° |
| 2026-05-04 01:07 | -44.00010 | 171.33329 | 38497 ft | 391 kts | 241° |
| 2026-05-04 01:07 | -44.01387 | 171.30062 | 38284 ft | 396 kts | 241° |
| 2026-05-04 01:08 | -44.02775 | 171.26766 | 38484 ft | 394 kts | 241° |
| 2026-05-04 01:08 | -44.05557 | 171.20155 | 38480 ft | 394 kts | 241° |
| 2026-05-04 01:09 | -44.08309 | 171.13603 | 38497 ft | 391 kts | 242° |
| 2026-05-04 01:09 | -44.11022 | 171.07124 | 38491 ft | 389 kts | 242° |
| 2026-05-04 01:10 | -44.13746 | 171.00605 | 38483 ft | 390 kts | 242° |
| 2026-05-04 01:10 | -44.16466 | 170.94083 | 38483 ft | 389 kts | 242° |
| 2026-05-04 01:11 | -44.19183 | 170.87550 | 38476 ft | 389 kts | 242° |
| 2026-05-04 01:11 | -44.21891 | 170.81022 | 38485 ft | 389 kts | 242° |
| 2026-05-04 01:12 | -44.24593 | 170.74496 | 38488 ft | 388 kts | 242° |
| 2026-05-04 01:12 | -44.27288 | 170.67978 | 38483 ft | 387 kts | 242° |
| 2026-05-04 01:13 | -44.29958 | 170.61492 | 38494 ft | 388 kts | 242° |
| 2026-05-04 01:13 | -44.32642 | 170.54961 | 38483 ft | 388 kts | 242° |
| 2026-05-04 01:14 | -44.35326 | 170.48420 | 38484 ft | 387 kts | 242° |
| 2026-05-04 01:14 | -44.38004 | 170.41872 | 38494 ft | 388 kts | 242° |
| 2026-05-04 01:15 | -44.40678 | 170.35323 | 38492 ft | 387 kts | 242° |
| 2026-05-04 01:15 | -44.43347 | 170.28770 | 38490 ft | 387 kts | 242° |
| 2026-05-04 01:16 | -44.45994 | 170.22254 | 38500 ft | 387 kts | 242° |
| 2026-05-04 01:16 | -44.48655 | 170.15690 | 38481 ft | 387 kts | 242° |
| 2026-05-04 01:17 | -44.51309 | 170.09130 | 38492 ft | 388 kts | 243° |
| 2026-05-04 01:17 | -44.52648 | 170.05808 | 37818 ft | 394 kts | 242° |
| 2026-05-04 01:17 | -44.54000 | 170.02451 | 37177 ft | 397 kts | 242° |
| 2026-05-04 01:17 | -44.55364 | 169.99065 | 36563 ft | 399 kts | 242° |
| 2026-05-04 01:18 | -44.56733 | 169.95663 | 35950 ft | 402 kts | 243° |
| 2026-05-04 01:18 | -44.58112 | 169.92229 | 35293 ft | 406 kts | 243° |
| 2026-05-04 01:18 | -44.59501 | 169.88763 | 34635 ft | 409 kts | 243° |
| 2026-05-04 01:18 | -44.60884 | 169.85309 | 34066 ft | 409 kts | 243° |
| 2026-05-04 01:19 | -44.62276 | 169.81836 | 33582 ft | 406 kts | 242° |
| 2026-05-04 01:19 | -44.63659 | 169.78380 | 33110 ft | 404 kts | 242° |
| 2026-05-04 01:19 | -44.65028 | 169.74951 | 32636 ft | 402 kts | 242° |
| 2026-05-04 01:19 | -44.66390 | 169.71532 | 32152 ft | 400 kts | 242° |
| 2026-05-04 01:20 | -44.67745 | 169.68125 | 31662 ft | 399 kts | 242° |
| 2026-05-04 01:20 | -44.69099 | 169.64719 | 31170 ft | 398 kts | 242° |
| 2026-05-04 01:20 | -44.70448 | 169.61321 | 30676 ft | 398 kts | 242° |
| 2026-05-04 01:20 | -44.71343 | 169.59067 | 30305 ft | 398 kts | 242° |
| 2026-05-04 01:21 | -44.72688 | 169.55675 | 29765 ft | 396 kts | 243° |
| 2026-05-04 01:21 | -44.74475 | 169.51159 | 29073 ft | 394 kts | 243° |
| 2026-05-04 01:21 | -44.75354 | 169.48935 | 28736 ft | 392 kts | 243° |
| 2026-05-04 01:21 | -44.76679 | 169.45580 | 28214 ft | 391 kts | 243° |
| 2026-05-04 01:22 | -44.78425 | 169.41149 | 27528 ft | 389 kts | 243° |
| 2026-05-04 01:22 | -44.79734 | 169.37822 | 27003 ft | 388 kts | 243° |
| 2026-05-04 01:22 | -44.81038 | 169.34497 | 26485 ft | 387 kts | 244° |
| 2026-05-04 01:22 | -44.81753 | 169.32210 | 26152 ft | 384 kts | 252° |
| 2026-05-04 01:23 | -44.82611 | 169.28647 | 25600 ft | 384 kts | 253° |
| 2026-05-04 01:23 | -44.83434 | 169.25065 | 25045 ft | 384 kts | 254° |
| 2026-05-04 01:23 | -44.84227 | 169.21481 | 24506 ft | 384 kts | 255° |
| 2026-05-04 01:23 | -44.85017 | 169.17889 | 23939 ft | 384 kts | 255° |
| 2026-05-04 01:24 | -44.85812 | 169.14316 | 23588 ft | 377 kts | 255° |
| 2026-05-04 01:24 | -44.86580 | 169.10842 | 23609 ft | 370 kts | 255° |
| 2026-05-04 01:24 | -44.87343 | 169.07303 | 23623 ft | 383 kts | 255° |
| 2026-05-04 01:24 | -44.88107 | 169.03652 | 23652 ft | 389 kts | 256° |
| 2026-05-04 01:25 | -44.88841 | 169.00063 | 23666 ft | 373 kts | 256° |
| 2026-05-04 01:25 | -44.89536 | 168.96598 | 23537 ft | 363 kts | 256° |
| 2026-05-04 01:25 | -44.90204 | 168.93186 | 23090 ft | 360 kts | 257° |
| 2026-05-04 01:25 | -44.90845 | 168.89830 | 22593 ft | 359 kts | 257° |
| 2026-05-04 01:26 | -44.91480 | 168.86418 | 22057 ft | 357 kts | 257° |
| 2026-05-04 01:26 | -44.92088 | 168.83062 | 21545 ft | 349 kts | 258° |
| 2026-05-04 01:26 | -44.92669 | 168.79782 | 21066 ft | 338 kts | 258° |
| 2026-05-04 01:26 | -44.93217 | 168.76621 | 20679 ft | 324 kts | 258° |
| 2026-05-04 01:27 | -44.93733 | 168.73587 | 20428 ft | 313 kts | 259° |
| 2026-05-04 01:27 | -44.94228 | 168.70608 | 19995 ft | 313 kts | 259° |
| 2026-05-04 01:27 | -44.94709 | 168.67638 | 19682 ft | 308 kts | 259° |
| 2026-05-04 01:27 | -44.95181 | 168.64639 | 18998 ft | 317 kts | 260° |
| 2026-05-04 01:28 | -44.95650 | 168.61546 | 18197 ft | 326 kts | 260° |
| 2026-05-04 01:28 | -44.96107 | 168.58407 | 17380 ft | 334 kts | 261° |
| 2026-05-04 01:28 | -44.96553 | 168.55148 | 16636 ft | 339 kts | 264° |
| 2026-05-04 01:28 | -44.96625 | 168.51831 | 16014 ft | 338 kts | 273° |
| 2026-05-04 01:29 | -44.96662 | 168.48503 | 15373 ft | 340 kts | 264° |
| 2026-05-04 01:29 | -44.97262 | 168.45329 | 14784 ft | 329 kts | 249° |
| 2026-05-04 01:29 | -44.98241 | 168.42443 | 14279 ft | 325 kts | 247° |
| 2026-05-04 01:29 | -44.99240 | 168.39577 | 13668 ft | 325 kts | 246° |
| 2026-05-04 01:30 | -45.00247 | 168.36719 | 13059 ft | 325 kts | 246° |
| 2026-05-04 01:30 | -45.01259 | 168.33850 | 12244 ft | 324 kts | 247° |
| 2026-05-04 01:30 | -45.02264 | 168.31045 | 11567 ft | 314 kts | 243° |
| 2026-05-04 01:30 | -45.03535 | 168.28638 | 11062 ft | 306 kts | 230° |
| 2026-05-04 01:31 | -45.05163 | 168.26740 | 10524 ft | 302 kts | 216° |
| 2026-05-04 01:31 | -45.07051 | 168.25514 | 10150 ft | 293 kts | 201° |
| 2026-05-04 01:31 | -45.09040 | 168.24994 | 9943 ft | 295 kts | 188° |
| 2026-05-04 01:31 | -45.11113 | 168.25172 | 9592 ft | 301 kts | 172° |
| 2026-05-04 01:32 | -45.13098 | 168.26108 | 9199 ft | 302 kts | 155° |
| 2026-05-04 01:32 | -45.14790 | 168.27876 | 8771 ft | 304 kts | 134° |
| 2026-05-04 01:32 | -45.15958 | 168.30347 | 8386 ft | 303 kts | 112° |
| 2026-05-04 01:32 | -45.16469 | 168.33196 | 8051 ft | 292 kts | 92° |
| 2026-05-04 01:33 | -45.16299 | 168.35997 | 7982 ft | 282 kts | 72° |
| 2026-05-04 01:33 | -45.15601 | 168.38571 | 7688 ft | 283 kts | 61° |
| 2026-05-04 01:33 | -45.14710 | 168.41049 | 7170 ft | 285 kts | 59° |
| 2026-05-04 01:33 | -45.13762 | 168.43498 | 6695 ft | 286 kts | 58° |
| 2026-05-04 01:34 | -45.12815 | 168.45935 | 6620 ft | 273 kts | 59° |
| 2026-05-04 01:34 | -45.11948 | 168.48224 | 6397 ft | 254 kts | 59° |
| 2026-05-04 01:34 | -45.11158 | 168.50347 | 5864 ft | 235 kts | 60° |
| 2026-05-04 01:34 | -45.10419 | 168.52330 | 5350 ft | 219 kts | 60° |
| 2026-05-04 01:35 | -45.09727 | 168.54169 | 4899 ft | 204 kts | 60° |
| 2026-05-04 01:35 | -45.09081 | 168.55880 | 4511 ft | 190 kts | 59° |
| 2026-05-04 01:35 | -45.08488 | 168.57453 | 4212 ft | 176 kts | 60° |
| 2026-05-04 01:35 | -45.07924 | 168.58947 | 4027 ft | 169 kts | 60° |
| 2026-05-04 01:36 | -45.07392 | 168.60357 | 4001 ft | 159 kts | 60° |
| 2026-05-04 01:36 | -45.06862 | 168.61788 | 3487 ft | 166 kts | 61° |
| 2026-05-04 01:36 | -45.06337 | 168.63162 | 3145 ft | 151 kts | 60° |
| 2026-05-04 01:36 | -45.05844 | 168.64432 | 2751 ft | 143 kts | 60° |
| 2026-05-04 01:37 | -45.05372 | 168.65644 | 2402 ft | 141 kts | 59° |
| 2026-05-04 01:37 | -45.04865 | 168.66838 | 2222 ft | 143 kts | 54° |
| 2026-05-04 01:37 | -45.04251 | 168.67965 | 2112 ft | 146 kts | 48° |
| 2026-05-04 01:37 | -45.03581 | 168.68952 | 2159 ft | 138 kts | 43° |
| 2026-05-04 01:38 | -45.02885 | 168.70031 | 1840 ft | 155 kts | 52° |
| 2026-05-04 01:38 | -45.02387 | 168.71413 | 1633 ft | 162 kts | 73° |
| 2026-05-04 01:38 | -45.02110 | 168.72944 | 1400 ft | 157 kts | 77° |
| 2026-05-04 01:38 | -45.01885 | 168.74377 | 1179 ft | 140 kts | 77° |
| 2026-05-04 01:39 | -45.01713 | 168.75362 | 1199 ft | 51 kts | 78° |
| 2026-05-04 01:39 | -45.01680 | 168.75593 | 1204 ft | 17 kts | 79° |
| 2026-05-04 01:39 | -45.01682 | 168.75694 | 1202 ft | 10 kts | 85° |
| 2026-05-04 01:39 | -45.01670 | 168.75716 | 1205 ft | 4 kts | 29° |
| 2026-05-04 01:40 | -45.01664 | 168.75710 | 1203 ft | 1 kts | 308° |
| 2026-05-04 01:40 | -45.01669 | 168.75673 | 1205 ft | 8 kts | 260° |
| 2026-05-04 01:40 | -45.01679 | 168.75595 | 1205 ft | 8 kts | 258° |
| 2026-05-04 01:40 | -45.01692 | 168.75519 | 1206 ft | 7 kts | 256° |
| 2026-05-04 01:41 | -45.01707 | 168.75434 | 1204 ft | 11 kts | 257° |
| 2026-05-04 01:41 | -45.01726 | 168.75313 | 1196 ft | 14 kts | 260° |
| 2026-05-04 01:41 | -45.01747 | 168.75175 | 1200 ft | 14 kts | 258° |
| 2026-05-04 01:41 | -45.01770 | 168.75039 | 1178 ft | 15 kts | 257° |
| 2026-05-04 01:42 | -45.01794 | 168.74892 | 1169 ft | 16 kts | 257° |
| 2026-05-04 01:42 | -45.01816 | 168.74741 | 1169 ft | 15 kts | 258° |
| 2026-05-04 01:42 | -45.01838 | 168.74602 | 1170 ft | 14 kts | 258° |
| 2026-05-04 01:42 | -45.01856 | 168.74477 | 1173 ft | 12 kts | 258° |
| 2026-05-04 01:43 | -45.01872 | 168.74377 | 1174 ft | 9 kts | 256° |
| 2026-05-04 01:43 | -45.01884 | 168.74297 | 1176 ft | 8 kts | 258° |
| 2026-05-04 01:43 | -45.01898 | 168.74218 | 1173 ft | 9 kts | 257° |
| 2026-05-04 01:43 | -45.01913 | 168.74122 | 1173 ft | 11 kts | 257° |
| 2026-05-04 01:44 | -45.01959 | 168.74041 | 1173 ft | 11 kts | 207° |
| 2026-05-04 01:44 | -45.02024 | 168.74002 | 1171 ft | 6 kts | 195° |
| 2026-05-04 01:44 | -45.02044 | 168.74002 | 1169 ft | 3 kts | 170° |
| 2026-05-04 01:44 | -45.02064 | 168.74020 | 1168 ft | 4 kts | 135° |
| 2026-05-04 01:45 | -45.02068 | 168.74025 | 1168 ft | 1 kts | 136° |
| 2026-05-04 01:45 | -45.02079 | 168.74030 | 1171 ft | 2 kts | 170° |
| 2026-05-04 01:45 | -45.02115 | 168.74016 | 1170 ft | 0 kts | 201° |
| 2026-05-04 01:46 | -45.02116 | 168.74015 | 1171 ft | 0 kts | 203° |